Time;durP1;ratioP1;P1;durP2;ratioP2;P2;SDS_P1;SDS_P2;PMS_P1;PMS_P2;Temp;Humidity;BMP_temperature;BMP_pressure;BME280_temperature;BME280_humidity;BME280_pressure;Samples;Min_cycle;Max_cycle;Signal;HPM_P1;HPM_P2
2021/01/18 00:00:30;;;;;;;2.20;1.88;;;25.80;31.00;;;;;;4982283;28;20050;-70
2021/01/18 00:02:56;;;;;;;5.72;1.20;;;25.80;30.60;;;;;;4993146;28;20022;-70
2021/01/18 00:05:23;;;;;;;3.60;1.50;;;25.80;29.50;;;;;;4992090;28;20380;-71
2021/01/18 00:07:51;;;;;;;2.28;1.50;;;25.80;29.60;;;;;;4990002;28;20109;-72
2021/01/18 00:10:22;;;;;;;2.85;1.63;;;25.70;30.60;;;;;;4990343;28;20019;-72
2021/01/18 00:12:54;;;;;;;3.58;1.60;;;25.60;30.70;;;;;;4988916;28;20029;-71
2021/01/18 00:15:22;;;;;;;3.72;1.30;;;25.50;31.50;;;;;;4986121;28;20408;-72
2021/01/18 00:17:49;;;;;;;3.72;1.50;;;25.40;30.70;;;;;;4990125;28;20030;-71
2021/01/18 00:20:18;;;;;;;1.98;1.30;;;25.60;29.20;;;;;;4987888;28;20027;-71
2021/01/18 00:22:45;;;;;;;4.07;1.10;;;25.40;30.10;;;;;;4990526;28;20038;-71
2021/01/18 00:25:14;;;;;;;1.88;1.30;;;25.30;29.60;;;;;;4986483;28;20086;-71
2021/01/18 00:27:41;;;;;;;2.25;1.48;;;25.30;29.20;;;;;;4989595;28;20360;-70
2021/01/18 00:30:13;;;;;;;2.33;1.40;;;25.10;30.00;;;;;;5002109;28;20105;-72
2021/01/18 00:32:40;;;;;;;1.90;1.38;;;25.00;30.30;;;;;;4999576;28;20121;-75
2021/01/18 00:35:12;;;;;;;1.10;1.00;;;25.10;32.10;;;;;;5007901;28;20066;-71
2021/01/18 00:37:45;;;;;;;2.08;1.38;;;25.10;33.00;;;;;;4987184;28;20033;-73
2021/01/18 00:40:14;;;;;;;5.90;1.77;;;25.10;32.80;;;;;;4987712;28;20383;-71
2021/01/18 00:42:41;;;;;;;3.03;2.10;;;25.10;34.00;;;;;;4995315;28;20635;-71
2021/01/18 00:45:09;;;;;;;1.88;1.70;;;25.00;34.70;;;;;;4987730;28;20037;-71
2021/01/18 00:47:40;;;;;;;4.65;2.20;;;24.90;34.60;;;;;;4984068;28;20061;-74
2021/01/18 00:50:07;;;;;;;3.47;1.40;;;24.80;34.60;;;;;;4987008;28;20075;-74
2021/01/18 00:52:34;;;;;;;4.13;1.45;;;24.70;34.20;;;;;;4991592;28;20401;-76
2021/01/18 00:55:00;;;;;;;4.00;1.50;;;24.50;35.20;;;;;;4991143;28;20171;-74
2021/01/18 00:57:35;;;;;;;2.75;1.92;;;24.30;34.60;;;;;;4994361;28;20026;-74
2021/01/18 01:00:01;;;;;;;3.83;1.65;;;24.10;35.00;;;;;;4990048;28;20038;-72
2021/01/18 01:02:28;;;;;;;6.55;2.38;;;23.90;35.30;;;;;;4986856;28;20049;-72
2021/01/18 01:04:55;;;;;;;4.18;2.13;;;23.70;35.90;;;;;;4983507;28;20031;-73
2021/01/18 01:07:21;;;;;;;6.53;2.08;;;23.50;35.50;;;;;;4979633;28;20023;-73
2021/01/18 01:09:48;;;;;;;7.75;1.83;;;23.20;36.10;;;;;;4988022;28;20121;-72
2021/01/18 01:12:14;;;;;;;6.82;1.38;;;23.00;36.30;;;;;;4990095;28;20050;-72
2021/01/18 01:14:41;;;;;;;1.95;1.65;;;22.70;36.40;;;;;;4984040;28;20364;-72
2021/01/18 01:17:11;;;;;;;2.83;1.98;;;22.50;36.90;;;;;;4989115;28;20033;-73
2021/01/18 01:19:37;;;;;;;9.85;2.33;;;22.30;37.30;;;;;;4994680;28;20052;-72
2021/01/18 01:22:07;;;;;;;4.60;2.30;;;22.20;37.60;;;;;;4991788;28;20026;-72
2021/01/18 01:24:33;;;;;;;4.30;1.73;;;22.30;37.20;;;;;;4990720;28;20031;-73
2021/01/18 01:26:59;;;;;;;4.90;2.15;;;22.10;37.00;;;;;;4985310;28;20070;-72
2021/01/18 01:29:26;;;;;;;3.58;1.88;;;22.00;36.90;;;;;;4990834;28;20507;-72
2021/01/18 01:31:52;;;;;;;2.50;1.42;;;21.70;37.40;;;;;;4983738;28;20038;-72
2021/01/18 01:34:19;;;;;;;2.55;1.90;;;21.40;37.60;;;;;;4984542;28;20464;-72
2021/01/18 01:36:45;;;;;;;2.63;1.73;;;21.10;38.50;;;;;;4985783;28;20041;-70
2021/01/18 01:39:11;;;;;;;2.22;1.35;;;20.90;38.70;;;;;;4982241;28;20034;-72
2021/01/18 01:41:38;;;;;;;3.42;1.73;;;20.70;39.00;;;;;;4987075;28;20038;-71
2021/01/18 01:44:04;;;;;;;2.63;1.70;;;20.70;39.30;;;;;;4987066;28;20043;-71
2021/01/18 01:46:31;;;;;;;5.82;2.28;;;20.50;40.40;;;;;;4985865;28;20045;-70
2021/01/18 01:48:58;;;;;;;2.95;1.88;;;20.40;39.60;;;;;;4981771;28;20031;-74
2021/01/18 01:51:29;;;;;;;2.67;2.10;;;20.30;39.70;;;;;;4985330;28;20494;-70
2021/01/18 01:53:57;;;;;;;5.35;2.15;;;20.20;39.80;;;;;;4987442;28;20404;-71
2021/01/18 01:56:24;;;;;;;2.92;2.40;;;20.00;40.20;;;;;;4991014;28;20368;-71
2021/01/18 01:58:56;;;;;;;3.15;1.75;;;20.00;40.30;;;;;;4993460;28;20120;-70
2021/01/18 02:01:22;;;;;;;;;;;20.10;40.20;;;;;;4989228;28;20049;-70
2021/01/18 02:03:53;;;;;;;2.97;1.92;;;20.10;39.50;;;;;;4988465;28;20477;-70
2021/01/18 02:06:19;;;;;;;4.00;2.22;;;19.90;40.10;;;;;;4989805;28;20519;-71
2021/01/18 02:08:46;;;;;;;4.30;2.28;;;19.80;40.70;;;;;;4990530;28;20089;-71
2021/01/18 02:11:14;;;;;;;5.45;2.10;;;19.50;41.20;;;;;;4993992;28;20511;-70
2021/01/18 02:14:02;;;;;;;2.88;1.38;;;19.40;41.50;;;;;;4986641;28;20031;-71
2021/01/18 02:16:58;;;;;;;4.35;1.70;;;19.20;41.60;;;;;;4988061;28;20023;-71
2021/01/18 02:19:39;;;;;;;5.95;2.22;;;19.10;41.20;;;;;;4993875;28;20578;-71
2021/01/18 02:22:22;;;;;;;2.83;1.98;;;18.90;41.30;;;;;;4987723;28;20121;-70
2021/01/18 02:25:26;;;;;;;8.02;3.05;;;18.90;41.50;;;;;;4991421;28;20033;-71
2021/01/18 02:28:20;;;;;;;5.20;2.10;;;18.70;41.10;;;;;;4987131;28;20049;-71
2021/01/18 02:30:52;;;;;;;5.25;3.08;;;18.60;41.90;;;;;;4990243;28;20030;-71
2021/01/18 02:33:40;;;;;;;3.83;2.60;;;18.50;42.60;;;;;;4992003;28;20092;-71
2021/01/18 02:36:27;;;;;;;5.25;3.20;;;18.50;42.50;;;;;;4990515;28;20110;-70
2021/01/18 02:39:24;;;;;;;6.88;3.45;;;18.30;42.80;;;;;;4987883;28;20101;-72
2021/01/18 02:42:11;;;;;;;6.60;2.15;;;18.30;41.90;;;;;;4989254;28;20025;-71
2021/01/18 02:44:40;;;;;;;5.10;2.58;;;18.30;42.00;;;;;;4992055;28;20628;-70
2021/01/18 02:47:09;;;;;;;7.35;2.60;;;18.10;42.40;;;;;;4992849;28;20022;-70
2021/01/18 02:49:36;;;;;;;5.72;2.03;;;17.90;43.30;;;;;;4987215;28;20030;-70
2021/01/18 02:52:15;;;;;;;5.00;2.20;;;17.70;43.10;;;;;;4976555;28;20090;-70
2021/01/18 02:54:42;;;;;;;5.03;2.88;;;17.60;43.40;;;;;;4989916;28;20030;-71
2021/01/18 02:57:16;;;;;;;4.78;2.85;;;17.60;43.90;;;;;;4980546;28;20049;-72
2021/01/18 02:59:43;;;;;;;4.03;2.25;;;17.60;43.90;;;;;;4986380;28;20414;-71
2021/01/18 03:02:26;;;;;;;4.40;3.03;;;17.40;44.50;;;;;;4983463;28;20113;-70
2021/01/18 03:05:03;;;;;;;;;;;17.30;44.80;;;;;;4989572;28;20491;-71
2021/01/18 03:07:56;;;;;;;4.40;2.92;;;17.30;42.60;;;;;;4988962;28;19917;-71
2021/01/18 03:10:28;;;;;;;3.45;2.20;;;17.20;44.30;;;;;;4987493;28;20039;-71
2021/01/18 03:13:31;;;;;;;4.55;3.20;;;17.10;44.80;;;;;;4986526;28;20035;-71
2021/01/18 03:16:08;;;;;;;3.65;2.50;;;17.00;44.10;;;;;;4985059;28;20038;-71
2021/01/18 03:18:35;;;;;;;4.78;3.13;;;16.90;45.40;;;;;;4987814;28;20051;-71
2021/01/18 03:21:02;;;;;;;6.32;2.90;;;17.00;43.70;;;;;;4986443;28;20053;-71
2021/01/18 03:23:29;;;;;;;4.28;2.42;;;16.90;44.70;;;;;;4981671;28;20376;-71
2021/01/18 03:25:57;;;;;;;6.45;3.28;;;16.80;44.90;;;;;;4985761;28;20407;-71
2021/01/18 03:28:24;;;;;;;6.20;2.53;;;16.70;46.20;;;;;;4988138;28;20038;-71
2021/01/18 03:30:51;;;;;;;7.00;2.67;;;16.60;45.40;;;;;;4986776;28;20433;-72
2021/01/18 03:33:18;;;;;;;6.50;2.88;;;16.50;46.40;;;;;;4987476;28;20037;-71
2021/01/18 03:35:45;;;;;;;8.70;2.72;;;16.40;46.30;;;;;;4986444;28;20033;-71
2021/01/18 03:38:12;;;;;;;7.97;2.92;;;16.30;46.80;;;;;;4987525;28;20026;-72
2021/01/18 03:40:38;;;;;;;5.68;2.50;;;16.20;46.40;;;;;;4984842;28;20039;-71
2021/01/18 03:43:07;;;;;;;5.20;3.20;;;16.20;46.90;;;;;;4986366;28;20479;-72
2021/01/18 03:45:39;;;;;;;6.22;3.05;;;16.10;47.40;;;;;;4985951;28;20474;-71
2021/01/18 03:48:07;;;;;;;6.55;3.22;;;16.10;45.40;;;;;;4986850;28;20023;-71
2021/01/18 03:50:34;;;;;;;6.38;3.10;;;16.10;45.70;;;;;;4984646;28;20030;-71
2021/01/18 03:53:01;;;;;;;6.28;3.25;;;16.00;47.80;;;;;;4986813;28;20076;-72
2021/01/18 03:55:27;;;;;;;6.72;3.00;;;16.00;46.80;;;;;;4989714;28;20046;-71
2021/01/18 03:57:55;;;;;;;3.67;2.85;;;15.90;46.50;;;;;;4986852;28;20039;-73
2021/01/18 04:00:24;;;;;;;6.53;4.07;;;16.10;47.30;;;;;;4985568;28;20058;-70
2021/01/18 04:02:53;;;;;;;6.60;3.22;;;16.00;46.30;;;;;;4989158;28;20054;-71
2021/01/18 04:05:21;;;;;;;5.47;2.90;;;16.00;47.00;;;;;;4989742;28;20034;-71
2021/01/18 04:07:49;;;;;;;5.85;3.05;;;15.80;46.60;;;;;;4984578;28;20023;-71
2021/01/18 04:10:18;;;;;;;4.35;2.88;;;15.80;47.80;;;;;;4985900;28;20050;-71
2021/01/18 04:12:46;;;;;;;3.40;3.03;;;15.90;47.40;;;;;;4985901;28;20050;-72
2021/01/18 04:15:15;;;;;;;4.13;2.53;;;15.90;47.60;;;;;;4983628;28;20034;-72
2021/01/18 04:17:43;;;;;;;9.10;2.55;;;16.00;47.80;;;;;;4985626;28;20409;-72
2021/01/18 04:20:10;;;;;;;5.97;2.30;;;15.80;47.00;;;;;;4982542;28;20027;-73
2021/01/18 04:22:42;;;;;;;5.78;3.08;;;15.80;47.40;;;;;;4981536;28;20468;-74
2021/01/18 04:25:10;;;;;;;2.97;2.40;;;15.80;47.50;;;;;;4989191;28;20134;-72
2021/01/18 04:27:36;;;;;;;6.35;2.92;;;15.80;48.00;;;;;;4978314;28;20468;-73
2021/01/18 04:30:05;;;;;;;8.85;3.13;;;15.90;49.10;;;;;;4984401;28;20034;-72
2021/01/18 04:32:32;;;;;;;4.60;2.15;;;16.10;48.70;;;;;;4990501;28;20113;-74
2021/01/18 04:34:58;;;;;;;4.57;3.30;;;16.10;48.10;;;;;;4987823;28;20077;-73
2021/01/18 04:37:24;;;;;;;4.25;2.58;;;16.00;48.00;;;;;;4985675;28;20077;-74
2021/01/18 04:39:51;;;;;;;3.65;2.20;;;16.00;48.10;;;;;;4985428;28;20037;-73
2021/01/18 04:42:17;;;;;;;10.60;3.40;;;16.10;48.00;;;;;;4985392;28;20030;-73
2021/01/18 04:44:44;;;;;;;6.63;2.35;;;15.90;47.90;;;;;;4989515;28;20515;-74
2021/01/18 04:47:13;;;;;;;4.10;2.20;;;16.00;48.20;;;;;;4985462;28;20384;-73
2021/01/18 04:49:40;;;;;;;3.17;1.70;;;16.10;48.00;;;;;;4985369;28;20034;-74
2021/01/18 04:52:15;;;;;;;2.08;1.88;;;16.30;47.90;;;;;;4982381;28;20171;-74
2021/01/18 04:54:54;;;;;;;1.70;1.60;;;16.20;48.20;;;;;;4982690;28;20481;-73
2021/01/18 04:57:31;;;;;;;5.22;1.85;;;16.20;48.30;;;;;;4986600;28;20034;-72
2021/01/18 05:00:03;;;;;;;4.10;2.10;;;16.40;48.00;;;;;;4989829;28;20066;-73
2021/01/18 05:02:39;;;;;;;5.72;1.92;;;16.50;47.80;;;;;;4984804;28;20024;-72
2021/01/18 05:05:28;;;;;;;4.03;1.40;;;16.80;47.60;;;;;;4987572;28;20045;-72
2021/01/18 05:08:06;;;;;;;3.92;1.52;;;16.90;47.30;;;;;;4986988;28;20062;-74
2021/01/18 05:10:33;;;;;;;6.28;1.92;;;16.90;47.20;;;;;;4986515;28;20030;-72
2021/01/18 05:13:02;;;;;;;6.55;2.08;;;16.60;47.20;;;;;;4984624;28;20031;-71
2021/01/18 05:15:29;;;;;;;4.90;2.38;;;16.50;48.00;;;;;;4999883;28;20037;-72
2021/01/18 05:18:00;;;;;;;8.85;1.95;;;16.40;48.00;;;;;;4991926;28;20037;-72
2021/01/18 05:20:27;;;;;;;4.90;2.08;;;16.60;48.20;;;;;;4993487;28;20026;-72
2021/01/18 05:22:56;;;;;;;7.25;2.35;;;16.80;47.60;;;;;;4991571;28;20068;-72
2021/01/18 05:25:23;;;;;;;4.25;2.03;;;16.90;47.60;;;;;;4991463;28;20077;-72
2021/01/18 05:27:59;;;;;;;8.75;1.98;;;16.70;47.40;;;;;;4988660;28;20028;-73
2021/01/18 05:30:27;;;;;;;6.35;1.80;;;16.70;47.50;;;;;;4987870;28;20038;-72
2021/01/18 05:33:10;;;;;;;4.30;2.20;;;16.70;48.10;;;;;;4993954;28;20038;-73
2021/01/18 05:35:45;;;;;;;3.08;2.45;;;16.80;48.10;;;;;;4988585;28;20054;-73
2021/01/18 05:38:14;;;;;;;4.78;2.22;;;16.80;47.80;;;;;;4984231;28;20636;-73
2021/01/18 05:40:45;;;;;;;4.32;2.30;;;16.80;47.60;;;;;;4986517;28;20038;-72
2021/01/18 05:43:14;;;;;;;3.65;2.08;;;16.90;47.90;;;;;;4991074;28;20106;-71
2021/01/18 05:45:45;;;;;;;5.93;1.75;;;16.80;47.90;;;;;;4991565;28;20034;-72
2021/01/18 05:48:13;;;;;;;4.15;1.75;;;16.80;47.70;;;;;;4990484;28;20037;-72
2021/01/18 05:50:40;;;;;;;1.98;1.67;;;16.70;47.80;;;;;;4991110;28;20065;-71
2021/01/18 05:53:26;;;;;;;2.72;1.73;;;16.80;48.20;;;;;;4988393;28;20328;-70
2021/01/18 05:55:53;;;;;;;2.13;1.90;;;16.50;48.10;;;;;;4997289;28;20034;-71
2021/01/18 05:58:33;;;;;;;5.22;2.53;;;16.30;48.90;;;;;;4993699;28;20030;-71
2021/01/18 06:01:00;;;;;;;11.38;3.42;;;16.30;48.70;;;;;;4985982;28;20022;-71
2021/01/18 06:03:31;;;;;;;5.95;2.63;;;16.10;49.30;;;;;;4993042;28;20026;-70
2021/01/18 06:05:59;;;;;;;3.22;1.90;;;16.10;49.70;;;;;;4994268;28;20054;-73
2021/01/18 06:08:27;;;;;;;2.80;2.20;;;16.00;49.70;;;;;;4992068;28;20030;-72
2021/01/18 06:10:55;;;;;;;2.60;1.88;;;15.90;49.80;;;;;;4990494;28;20023;-72
2021/01/18 06:13:22;;;;;;;4.70;1.88;;;15.90;49.70;;;;;;4990042;28;20500;-71
2021/01/18 06:16:09;;;;;;;2.97;1.60;;;15.80;49.70;;;;;;4994174;28;20467;-72
2021/01/18 06:18:37;;;;;;;3.67;2.05;;;15.80;49.50;;;;;;4989337;28;20069;-71
2021/01/18 06:21:05;;;;;;;3.92;1.83;;;15.70;49.90;;;;;;4996668;28;20105;-71
2021/01/18 06:23:32;;;;;;;2.63;2.03;;;15.70;49.80;;;;;;4994843;28;20030;-70
2021/01/18 06:26:00;;;;;;;9.93;4.45;;;15.60;50.10;;;;;;4994239;28;20092;-70
2021/01/18 06:28:37;;;;;;;6.38;3.67;;;15.70;49.40;;;;;;4986077;28;20100;-70
2021/01/18 06:31:09;;;;;;;7.13;3.30;;;15.60;49.70;;;;;;4992805;28;20041;-71
2021/01/18 06:33:45;;;;;;;6.45;3.20;;;15.40;50.80;;;;;;4996047;28;20039;-70
2021/01/18 06:36:23;;;;;;;8.18;2.58;;;15.40;50.50;;;;;;4995856;28;20030;-71
2021/01/18 06:38:57;;;;;;;6.55;2.50;;;15.30;50.50;;;;;;5001205;28;20456;-71
2021/01/18 06:41:34;;;;;;;8.32;2.88;;;15.30;51.10;;;;;;5000359;28;20029;-71
2021/01/18 06:44:01;;;;;;;5.35;2.55;;;15.20;50.30;;;;;;4989059;28;20062;-71
2021/01/18 06:46:36;;;;;;;6.60;2.72;;;15.10;51.00;;;;;;4993632;28;20549;-71
2021/01/18 06:49:04;;;;;;;3.00;2.53;;;15.10;50.70;;;;;;4992176;28;20030;-71
2021/01/18 06:51:32;;;;;;;5.57;2.25;;;15.20;49.70;;;;;;4990199;28;20465;-71
2021/01/18 06:53:59;;;;;;;10.63;3.30;;;15.00;50.90;;;;;;4989812;28;20392;-71
2021/01/18 06:56:35;;;;;;;7.72;2.63;;;15.00;50.70;;;;;;4993461;28;20735;-71
2021/01/18 06:59:22;;;;;;;7.97;2.50;;;15.10;51.20;;;;;;4998350;28;20097;-73
2021/01/18 07:02:01;;;;;;;21.70;4.10;;;15.10;50.10;;;;;;4994964;28;20038;-73
2021/01/18 07:04:40;;;;;;;3.42;2.50;;;15.00;51.00;;;;;;4990366;28;20105;-72
2021/01/18 07:07:13;;;;;;;4.45;2.40;;;14.90;49.90;;;;;;4991123;28;20030;-71
2021/01/18 07:09:43;;;;;;;3.25;2.40;;;14.90;51.30;;;;;;4992942;28;20026;-72
2021/01/18 07:12:10;;;;;;;2.42;2.10;;;14.80;51.40;;;;;;5008832;28;20403;-71
2021/01/18 07:14:37;;;;;;;5.68;2.40;;;14.80;51.30;;;;;;4992046;28;20109;-71
2021/01/18 07:17:06;;;;;;;2.20;2.00;;;14.80;51.30;;;;;;4994327;28;20093;-71
2021/01/18 07:19:37;;;;;;;4.57;2.45;;;14.70;51.80;;;;;;4992199;28;20032;-71
2021/01/18 07:22:23;;;;;;;6.50;2.45;;;15.00;51.10;;;;;;4991219;28;20456;-71
2021/01/18 07:24:58;;;;;;;5.47;2.25;;;14.80;51.90;;;;;;4990204;28;20444;-70
2021/01/18 07:27:25;;;;;;;12.73;3.33;;;14.60;51.80;;;;;;4994178;28;20026;-71
2021/01/18 07:29:52;;;;;;;8.20;2.17;;;14.70;52.50;;;;;;4994986;28;20038;-71
2021/01/18 07:32:21;;;;;;;3.90;2.20;;;14.60;52.80;;;;;;4990481;28;20034;-71
2021/01/18 07:34:48;;;;;;;2.15;1.95;;;14.70;51.40;;;;;;4992164;28;20037;-71
2021/01/18 07:37:14;;;;;;;4.68;2.08;;;14.70;52.00;;;;;;4994357;28;20029;-71
2021/01/18 07:39:42;;;;;;;4.43;2.28;;;14.50;53.20;;;;;;4993683;28;20440;-71
2021/01/18 07:42:33;;;;;;;3.00;2.28;;;14.50;53.30;;;;;;4994046;28;20034;-71
2021/01/18 07:45:25;;;;;;;3.22;2.40;;;14.40;52.70;;;;;;4991728;28;20034;-71
2021/01/18 07:48:00;;;;;;;8.20;2.92;;;14.40;54.10;;;;;;4994578;28;20045;-71
2021/01/18 07:50:30;;;;;;;3.30;1.77;;;14.40;53.00;;;;;;4993363;28;20026;-72
2021/01/18 07:53:00;;;;;;;4.63;2.25;;;14.30;53.80;;;;;;4994955;28;20026;-71
2021/01/18 07:55:27;;;;;;;3.60;2.92;;;14.30;53.50;;;;;;4992957;28;20035;-72
2021/01/18 07:57:54;;;;;;;3.58;2.97;;;14.30;53.40;;;;;;4996236;28;20035;-72
2021/01/18 08:00:23;;;;;;;4.25;3.28;;;14.40;53.20;;;;;;4993546;28;20031;-71
2021/01/18 08:02:55;;;;;;;6.75;2.90;;;14.30;53.40;;;;;;4988271;28;20022;-71
2021/01/18 08:05:23;;;;;;;3.58;2.13;;;14.30;55.10;;;;;;4988733;28;20495;-71
2021/01/18 08:08:07;;;;;;;2.58;2.38;;;14.20;53.40;;;;;;4994155;28;20027;-71
2021/01/18 08:10:56;;;;;;;4.53;2.35;;;14.20;53.50;;;;;;4992473;28;20092;-71
2021/01/18 08:13:45;;;;;;;6.28;2.72;;;14.20;53.50;;;;;;4992197;28;20026;-70
2021/01/18 08:16:39;;;;;;;5.80;2.28;;;14.30;52.40;;;;;;4993047;28;20026;-71
2021/01/18 08:19:18;;;;;;;4.32;2.25;;;14.30;54.70;;;;;;4991325;28;20034;-71
2021/01/18 08:21:56;;;;;;;3.03;2.05;;;14.20;54.10;;;;;;4992767;28;20037;-71
2021/01/18 08:24:29;;;;;;;4.13;2.30;;;14.10;54.10;;;;;;4991914;28;20460;-70
2021/01/18 08:27:05;;;;;;;;;;;14.10;54.30;;;;;;4993207;28;20579;-72
2021/01/18 08:29:38;;;;;;;6.00;2.38;;;14.10;52.80;;;;;;4993121;28;19980;-71
2021/01/18 08:32:23;;;;;;;4.97;2.63;;;14.20;53.00;;;;;;4991426;28;20117;-71
2021/01/18 08:34:55;;;;;;;6.00;2.30;;;14.10;53.00;;;;;;4977603;28;20113;-71
2021/01/18 08:37:22;;;;;;;6.93;2.50;;;14.20;52.20;;;;;;4991970;28;20041;-70
2021/01/18 08:39:52;;;;;;;3.55;2.53;;;14.20;53.50;;;;;;4993192;28;20027;-70
2021/01/18 08:42:51;;;;;;;5.82;2.17;;;14.00;55.30;;;;;;4993213;28;20514;-70
2021/01/18 08:45:47;;;;;;;3.20;2.60;;;14.00;53.20;;;;;;4993447;28;20030;-70
2021/01/18 08:48:18;;;;;;;2.50;2.30;;;14.00;55.50;;;;;;4986258;28;20092;-71
2021/01/18 08:50:52;;;;;;;4.72;2.55;;;13.90;53.60;;;;;;4989697;28;20113;-70
2021/01/18 08:53:26;;;;;;;6.95;2.40;;;14.00;54.50;;;;;;4990563;28;20353;-72
2021/01/18 08:55:57;;;;;;;3.30;2.50;;;13.70;55.40;;;;;;4992660;28;20022;-71
2021/01/18 08:58:38;;;;;;;7.45;3.80;;;13.80;55.10;;;;;;4994773;28;20086;-71
2021/01/18 09:01:27;;;;;;;7.70;2.42;;;13.70;55.60;;;;;;4988890;28;20080;-70
2021/01/18 09:04:07;;;;;;;4.45;1.92;;;13.80;53.10;;;;;;4992028;28;20065;-70
2021/01/18 09:06:35;;;;;;;8.75;3.03;;;13.70;54.90;;;;;;4993987;28;20364;-71
2021/01/18 09:09:06;;;;;;;2.10;1.58;;;13.70;54.90;;;;;;4992841;28;20092;-71
2021/01/18 09:11:33;;;;;;;3.08;2.10;;;13.70;55.30;;;;;;4993736;28;20069;-70
2021/01/18 09:14:00;;;;;;;9.07;3.00;;;13.70;53.10;;;;;;4993588;28;20027;-70
2021/01/18 09:16:27;;;;;;;3.70;2.35;;;13.70;54.60;;;;;;4994941;28;20401;-72
2021/01/18 09:19:03;;;;;;;5.25;2.08;;;13.70;54.70;;;;;;4991997;28;20081;-71
2021/01/18 09:21:30;;;;;;;4.60;2.05;;;13.70;54.90;;;;;;4984804;28;20035;-71
2021/01/18 09:23:57;;;;;;;3.00;2.13;;;13.70;54.90;;;;;;4993197;28;20054;-71
2021/01/18 09:26:24;;;;;;;4.03;2.47;;;13.60;55.30;;;;;;4985703;28;20026;-71
2021/01/18 09:28:54;;;;;;;2.97;1.95;;;13.60;55.10;;;;;;4992387;28;20460;-71
2021/01/18 09:31:21;;;;;;;2.38;1.85;;;13.60;55.00;;;;;;4992084;28;20113;-70
2021/01/18 09:33:48;;;;;;;2.60;2.10;;;13.60;56.10;;;;;;4991707;28;20030;-70
2021/01/18 09:36:20;;;;;;;5.57;2.25;;;13.50;55.40;;;;;;4991003;28;20015;-70
2021/01/18 09:38:47;;;;;;;2.93;1.93;;;13.50;56.40;;;;;;4990270;28;20029;-71
2021/01/18 09:41:15;;;;;;;11.90;3.05;;;13.60;55.50;;;;;;4991789;28;20022;-71
2021/01/18 09:43:43;;;;;;;11.80;3.30;;;13.50;57.20;;;;;;4983162;28;20031;-69
2021/01/18 09:46:10;;;;;;;3.13;2.55;;;13.50;55.60;;;;;;4992062;28;20033;-70
2021/01/18 09:48:37;;;;;;;4.28;2.58;;;13.60;53.70;;;;;;4992081;28;20023;-70
2021/01/18 09:51:04;;;;;;;5.20;2.47;;;13.60;55.70;;;;;;4991804;28;20364;-72
2021/01/18 09:53:32;;;;;;;4.15;2.38;;;13.60;54.00;;;;;;4994196;28;20057;-70
2021/01/18 09:56:03;;;;;;;7.68;2.50;;;13.50;57.10;;;;;;4993034;28;20333;-70
2021/01/18 09:58:54;;;;;;;5.38;2.08;;;13.40;57.10;;;;;;4995027;28;20022;-70
2021/01/18 10:01:26;;;;;;;3.42;1.90;;;13.50;55.40;;;;;;4994741;28;20067;-70
2021/01/18 10:03:55;;;;;;;4.63;2.85;;;13.30;58.30;;;;;;4993549;28;20027;-71
2021/01/18 10:06:27;;;;;;;5.13;2.60;;;13.50;56.50;;;;;;4993559;28;20039;-70
2021/01/18 10:09:02;;;;;;;;;;;13.50;57.00;;;;;;5002456;28;20023;-70
2021/01/18 10:11:50;;;;;;;3.78;2.95;;;13.50;54.70;;;;;;4994981;28;20395;-70
2021/01/18 10:14:19;;;;;;;5.55;2.75;;;13.50;55.10;;;;;;4994318;28;20022;-70
2021/01/18 10:17:08;;;;;;;6.15;3.85;;;13.40;57.00;;;;;;4991771;28;20423;-70
2021/01/18 10:19:39;;;;;;;4.32;3.47;;;13.50;55.60;;;;;;4991452;28;20460;-71
2021/01/18 10:22:19;;;;;;;4.03;2.90;;;13.50;56.70;;;;;;4993802;28;20050;-69
2021/01/18 10:24:57;;;;;;;7.32;3.38;;;13.50;55.70;;;;;;4976010;28;20042;-71
2021/01/18 10:27:28;;;;;;;11.35;4.03;;;13.60;54.20;;;;;;4995511;28;20022;-70
2021/01/18 10:30:10;;;;;;;8.50;3.20;;;13.70;54.50;;;;;;4996597;28;20168;-70
2021/01/18 10:32:45;;;;;;;4.75;3.20;;;13.60;55.50;;;;;;4996555;28;20031;-71
2021/01/18 10:35:30;;;;;;;6.93;3.33;;;13.60;56.50;;;;;;4996749;28;20030;-70
2021/01/18 10:38:21;;;;;;;5.95;3.65;;;13.50;56.50;;;;;;4996802;28;20023;-70
2021/01/18 10:41:08;;;;;;;7.80;3.28;;;13.60;54.80;;;;;;4995962;28;20105;-71
2021/01/18 10:43:34;;;;;;;8.55;3.90;;;13.60;55.80;;;;;;4992427;28;20478;-71
2021/01/18 10:46:01;;;;;;;8.60;4.28;;;13.60;55.60;;;;;;4997320;28;20034;-71
2021/01/18 10:48:33;;;;;;;8.80;3.00;;;13.60;55.70;;;;;;4996898;28;20034;-72
2021/01/18 10:51:04;;;;;;;7.30;4.20;;;13.50;56.50;;;;;;4997523;28;20034;-71
2021/01/18 10:53:32;;;;;;;7.53;3.65;;;13.50;56.50;;;;;;4991786;28;20358;-71
2021/01/18 10:56:15;;;;;;;12.48;3.92;;;13.50;56.50;;;;;;4996155;28;20029;-71
2021/01/18 10:58:54;;;;;;;13.40;3.65;;;13.50;55.60;;;;;;4995250;28;20026;-71
2021/01/18 11:01:21;;;;;;;6.05;3.65;;;13.50;55.50;;;;;;4988784;28;20053;-71
2021/01/18 11:03:48;;;;;;;10.43;3.83;;;13.30;57.10;;;;;;4997582;28;20452;-71
2021/01/18 11:06:16;;;;;;;9.93;3.90;;;13.40;56.50;;;;;;4991853;28;20030;-71
2021/01/18 11:08:43;;;;;;;8.20;4.28;;;13.30;56.60;;;;;;4993182;28;20050;-71
2021/01/18 11:11:20;;;;;;;12.70;4.85;;;13.30;55.10;;;;;;4995357;28;20034;-71
2021/01/18 11:13:47;;;;;;;7.43;3.78;;;13.30;55.30;;;;;;4995274;28;20121;-70
2021/01/18 11:16:18;;;;;;;13.98;4.38;;;13.40;54.90;;;;;;4996534;28;20041;-71
2021/01/18 11:18:44;;;;;;;8.35;3.92;;;13.50;55.20;;;;;;4995358;28;20048;-71
2021/01/18 11:21:11;;;;;;;7.45;3.42;;;13.60;55.10;;;;;;4992674;28;20027;-71
2021/01/18 11:23:37;;;;;;;7.68;4.15;;;13.70;55.20;;;;;;4995349;28;20037;-71
2021/01/18 11:26:05;;;;;;;7.47;4.20;;;13.70;54.80;;;;;;4993600;28;20026;-71
2021/01/18 11:28:32;;;;;;;7.75;3.78;;;13.50;54.50;;;;;;4994638;28;20360;-70
2021/01/18 11:31:00;;;;;;;7.32;3.85;;;13.60;55.20;;;;;;4994212;28;20124;-70
2021/01/18 11:33:26;;;;;;;10.57;3.95;;;13.60;54.60;;;;;;4996611;28;20507;-71
2021/01/18 11:35:53;;;;;;;6.35;3.53;;;13.70;54.40;;;;;;4994826;28;20030;-70
2021/01/18 11:38:19;;;;;;;7.05;3.55;;;13.50;54.60;;;;;;4994816;28;20023;-72
2021/01/18 11:40:46;;;;;;;10.50;2.72;;;13.50;55.10;;;;;;4996790;28;20089;-72
2021/01/18 11:43:12;;;;;;;4.35;2.83;;;13.40;56.00;;;;;;4996514;28;20027;-71
2021/01/18 11:45:39;;;;;;;6.00;3.55;;;13.30;55.50;;;;;;4996802;28;20109;-70
2021/01/18 11:48:06;;;;;;;8.15;3.40;;;13.70;55.30;;;;;;4994629;28;20061;-70
2021/01/18 11:50:33;;;;;;;8.95;3.45;;;13.90;54.40;;;;;;4989292;28;20391;-71
2021/01/18 11:52:59;;;;;;;6.55;3.17;;;13.90;54.10;;;;;;4995412;28;20092;-71
2021/01/18 11:55:26;;;;;;;5.55;2.72;;;13.70;54.20;;;;;;4995056;28;20411;-71
2021/01/18 11:57:53;;;;;;;5.45;2.47;;;13.60;54.00;;;;;;4996073;28;20029;-72
2021/01/18 12:00:25;;;;;;;7.68;4.07;;;13.60;54.20;;;;;;4992503;28;20368;-71
2021/01/18 12:02:57;;;;;;;3.90;2.70;;;13.50;54.70;;;;;;4992426;28;20034;-71
2021/01/18 12:05:28;;;;;;;5.53;2.58;;;13.50;54.40;;;;;;4993472;28;20052;-71
2021/01/18 12:08:00;;;;;;;2.78;2.40;;;13.50;54.60;;;;;;4995915;28;20041;-70
2021/01/18 12:10:27;;;;;;;4.15;2.45;;;13.50;54.90;;;;;;4995072;28;20100;-70
2021/01/18 12:12:53;;;;;;;3.38;2.00;;;13.40;55.60;;;;;;4994253;28;20035;-72
2021/01/18 12:15:21;;;;;;;5.10;2.45;;;13.20;55.40;;;;;;4994626;28;20076;-71
2021/01/18 12:17:48;;;;;;;2.92;2.47;;;13.20;55.60;;;;;;4993672;28;20030;-70
2021/01/18 12:20:16;;;;;;;3.85;3.10;;;13.10;56.10;;;;;;4994026;28;20072;-70
2021/01/18 12:22:44;;;;;;;5.03;3.10;;;13.10;54.60;;;;;;4994286;28;20022;-70
2021/01/18 12:25:11;;;;;;;4.13;3.50;;;13.10;54.40;;;;;;4994334;28;20475;-70
2021/01/18 12:27:38;;;;;;;3.28;2.88;;;13.10;55.10;;;;;;4995278;28;20035;-70
2021/01/18 12:30:06;;;;;;;4.93;3.03;;;13.10;54.80;;;;;;4994149;28;20062;-70
2021/01/18 12:32:32;;;;;;;2.97;2.60;;;13.10;54.20;;;;;;4995013;28;20077;-70
2021/01/18 12:34:59;;;;;;;3.95;2.80;;;13.00;55.20;;;;;;4994263;28;20022;-70
2021/01/18 12:37:25;;;;;;;9.63;2.78;;;13.00;54.40;;;;;;4994196;28;20081;-71
2021/01/18 12:39:51;;;;;;;4.60;3.70;;;12.90;55.60;;;;;;4993891;28;20038;-70
2021/01/18 12:42:18;;;;;;;4.90;2.58;;;12.70;56.40;;;;;;4994757;28;20018;-70
2021/01/18 12:44:44;;;;;;;4.10;2.40;;;12.70;55.90;;;;;;4993265;28;20038;-70
2021/01/18 12:47:11;;;;;;;3.97;3.38;;;12.70;55.80;;;;;;4993541;28;20113;-70
2021/01/18 12:49:37;;;;;;;5.30;2.97;;;12.70;54.80;;;;;;4992676;28;21434;-70
2021/01/18 12:52:04;;;;;;;4.55;3.00;;;12.60;57.50;;;;;;4992851;28;20061;-70
2021/01/18 12:54:31;;;;;;;3.95;2.92;;;12.50;57.20;;;;;;4990814;28;20026;-70
2021/01/18 12:56:58;;;;;;;5.47;2.85;;;12.60;55.50;;;;;;4994148;28;20453;-70
2021/01/18 12:59:24;;;;;;;5.13;2.95;;;12.50;56.10;;;;;;4993310;28;20030;-71
2021/01/18 13:01:51;;;;;;;8.48;2.60;;;12.50;55.80;;;;;;4992944;28;20381;-71
2021/01/18 13:04:17;;;;;;;8.90;3.08;;;12.60;55.00;;;;;;4991562;28;20038;-70
2021/01/18 13:06:45;;;;;;;8.43;3.58;;;12.60;55.30;;;;;;4994447;28;20022;-70
2021/01/18 13:09:14;;;;;;;3.10;2.45;;;12.70;55.00;;;;;;4992656;28;20080;-71